Time;durP1;ratioP1;P1;durP2;ratioP2;P2;SDS_P1;SDS_P2;PMS_P1;PMS_P2;Temp;Humidity;BMP_temperature;BMP_pressure;BME280_temperature;BME280_humidity;BME280_pressure;Samples;Min_cycle;Max_cycle;Signal;HPM_P1;HPM_P2
2023/04/20 00:01:23;;;;;;;13.80;2.47;;;7.80;99.90;;;;;;4995183;28;20054;-55
2023/04/20 00:03:50;;;;;;;5.95;1.90;;;7.80;99.90;;;;;;4989882;28;20052;-55
2023/04/20 00:06:17;;;;;;;6.50;2.05;;;7.70;99.90;;;;;;4991237;28;20539;-55
2023/04/20 00:08:44;;;;;;;13.63;2.47;;;7.70;99.90;;;;;;4988864;28;20082;-55
2023/04/20 00:11:11;;;;;;;14.25;2.65;;;7.60;99.90;;;;;;5000170;28;20587;-55
2023/04/20 00:13:38;;;;;;;8.25;3.00;;;7.60;99.90;;;;;;5008336;28;20045;-57
2023/04/20 00:16:05;;;;;;;11.75;2.15;;;7.60;99.90;;;;;;5005221;28;20045;-55
2023/04/20 00:18:31;;;;;;;7.88;2.15;;;7.60;99.90;;;;;;4992542;28;20042;-55
2023/04/20 00:20:58;;;;;;;11.45;2.90;;;7.60;99.90;;;;;;4996496;28;20104;-56
2023/04/20 00:23:25;;;;;;;6.70;1.65;;;7.60;99.90;;;;;;4995384;28;20134;-56
2023/04/20 00:25:53;;;;;;;12.95;2.40;;;7.60;99.90;;;;;;4993729;28;20048;-55
2023/04/20 00:28:20;;;;;;;10.23;2.67;;;7.60;99.90;;;;;;4991245;28;20074;-57
2023/04/20 00:30:46;;;;;;;9.82;2.00;;;7.50;99.90;;;;;;4991621;28;20145;-56
2023/04/20 00:33:13;;;;;;;7.78;2.40;;;7.50;99.90;;;;;;5000561;28;20077;-56
2023/04/20 00:35:40;;;;;;;10.60;2.33;;;7.40;99.90;;;;;;5006363;28;20050;-56
2023/04/20 00:38:07;;;;;;;15.20;2.80;;;7.40;99.90;;;;;;4992131;28;20133;-55
2023/04/20 00:40:34;;;;;;;9.75;3.08;;;7.40;99.90;;;;;;4988699;28;20404;-54
2023/04/20 00:43:10;;;;;;;10.07;2.40;;;7.40;99.90;;;;;;4998221;28;20120;-54
2023/04/20 00:45:37;;;;;;;10.57;2.97;;;7.40;99.90;;;;;;5007262;28;20085;-55
2023/04/20 00:48:04;;;;;;;15.70;2.40;;;7.40;99.90;;;;;;5005405;28;20455;-55
2023/04/20 00:50:32;;;;;;;12.10;2.60;;;7.40;99.90;;;;;;5008665;28;20097;-55
2023/04/20 00:52:59;;;;;;;13.73;3.10;;;7.30;99.90;;;;;;5005018;28;20121;-57
2023/04/20 00:55:26;;;;;;;12.98;2.80;;;7.30;99.90;;;;;;5008659;28;20504;-58
2023/04/20 00:57:53;;;;;;;12.70;3.25;;;7.30;99.90;;;;;;4998374;28;20129;-56
2023/04/20 01:00:20;;;;;;;15.32;3.15;;;7.40;99.90;;;;;;4657012;28;10000628;-56
2023/04/20 01:02:47;;;;;;;13.82;2.80;;;7.30;99.90;;;;;;4990457;28;20148;-56
2023/04/20 01:05:14;;;;;;;13.65;3.05;;;7.30;99.90;;;;;;4995333;28;20050;-55
2023/04/20 01:07:42;;;;;;;9.80;2.63;;;7.30;99.90;;;;;;4997322;28;20057;-55
2023/04/20 01:10:09;;;;;;;13.57;3.28;;;7.30;99.90;;;;;;4993319;28;20053;-56
2023/04/20 01:12:36;;;;;;;12.50;3.45;;;7.30;99.90;;;;;;4995956;28;20049;-55
2023/04/20 01:15:04;;;;;;;12.60;2.80;;;7.20;99.90;;;;;;4996805;28;20054;-55
2023/04/20 01:17:32;;;;;;;11.30;3.65;;;7.20;99.90;;;;;;4998354;28;20045;-54
2023/04/20 01:19:59;;;;;;;13.52;2.83;;;7.20;99.90;;;;;;4997348;28;20054;-56
2023/04/20 01:22:26;;;;;;;10.75;2.63;;;7.10;99.90;;;;;;4993582;28;20046;-57
2023/04/20 01:24:53;;;;;;;9.75;3.15;;;7.20;99.90;;;;;;4998040;28;20053;-56
2023/04/20 01:27:19;;;;;;;14.38;3.45;;;7.10;99.90;;;;;;5006107;28;20508;-55
2023/04/20 01:29:46;;;;;;;16.10;2.92;;;7.10;99.90;;;;;;4999898;28;20049;-55
2023/04/20 01:32:13;;;;;;;10.23;3.30;;;7.10;99.90;;;;;;5001078;28;20052;-55
2023/04/20 01:34:40;;;;;;;12.38;3.20;;;7.10;99.90;;;;;;5003719;28;20552;-56
2023/04/20 01:37:07;;;;;;;14.02;4.03;;;7.10;99.90;;;;;;4990938;28;20049;-56
2023/04/20 01:39:37;;;;;;;17.77;3.88;;;7.10;99.90;;;;;;5001526;28;20046;-57
2023/04/20 01:42:04;;;;;;;20.35;3.25;;;7.10;99.90;;;;;;4988646;28;20053;-56
2023/04/20 01:44:31;;;;;;;11.63;2.88;;;7.10;99.90;;;;;;5001402;28;20092;-56
2023/04/20 01:46:58;;;;;;;16.27;3.50;;;7.10;99.90;;;;;;5007869;28;20164;-56
2023/04/20 01:49:25;;;;;;;16.23;3.08;;;7.10;99.90;;;;;;5003857;28;20050;-56
2023/04/20 01:51:52;;;;;;;17.15;6.30;;;7.00;99.90;;;;;;5007847;28;20137;-53
2023/04/20 01:54:19;;;;;;;15.50;4.82;;;7.10;99.90;;;;;;5002114;28;20053;-56
2023/04/20 01:56:45;;;;;;;9.55;3.38;;;7.00;99.90;;;;;;5006128;28;20133;-55
2023/04/20 01:59:12;;;;;;;17.65;3.22;;;7.00;99.90;;;;;;5003780;28;20420;-54
2023/04/20 02:01:39;;;;;;;14.23;3.55;;;6.90;99.90;;;;;;5007852;28;20069;-55
2023/04/20 02:04:05;;;;;;;13.98;4.47;;;7.00;99.90;;;;;;5001116;28;20053;-56
2023/04/20 02:06:32;;;;;;;13.73;4.53;;;7.00;99.90;;;;;;4995476;28;20054;-56
2023/04/20 02:08:59;;;;;;;17.80;3.95;;;7.00;99.90;;;;;;4995892;28;20053;-54
2023/04/20 02:11:26;;;;;;;19.10;5.40;;;7.00;99.90;;;;;;4999277;28;20049;-56
2023/04/20 02:13:52;;;;;;;12.32;3.65;;;7.00;99.90;;;;;;5004671;28;20042;-54
2023/04/20 02:16:20;;;;;;;14.23;4.53;;;7.00;99.90;;;;;;4995556;28;20385;-56
2023/04/20 02:18:47;;;;;;;11.25;4.40;;;7.00;99.90;;;;;;4988105;28;20054;-56
2023/04/20 02:21:14;;;;;;;21.58;5.75;;;7.00;99.90;;;;;;5003805;28;20592;-56
2023/04/20 02:23:40;;;;;;;9.63;3.33;;;7.00;99.90;;;;;;5008510;28;20048;-56
2023/04/20 02:26:07;;;;;;;15.27;3.85;;;6.90;99.90;;;;;;4995521;28;20054;-58
2023/04/20 02:28:34;;;;;;;12.18;4.18;;;7.00;99.90;;;;;;5005872;28;20152;-56
2023/04/20 02:31:01;;;;;;;11.20;3.13;;;7.00;99.90;;;;;;4993571;28;20057;-56
2023/04/20 02:33:28;;;;;;;15.10;3.75;;;7.00;99.90;;;;;;4989449;28;20047;-55
2023/04/20 02:35:55;;;;;;;16.35;5.07;;;7.00;99.90;;;;;;5003984;28;20140;-57
2023/04/20 02:38:21;;;;;;;14.27;4.15;;;6.90;99.90;;;;;;5001433;28;20056;-56
2023/04/20 02:40:48;;;;;;;16.95;5.15;;;6.90;99.90;;;;;;4999620;28;20316;-55
2023/04/20 02:43:15;;;;;;;16.58;4.40;;;6.90;99.90;;;;;;5005337;28;20081;-54
2023/04/20 02:45:41;;;;;;;21.33;4.80;;;6.90;99.90;;;;;;4997304;28;20556;-55
2023/04/20 02:48:08;;;;;;;12.68;5.15;;;6.90;99.90;;;;;;5009596;28;20140;-54
2023/04/20 02:50:36;;;;;;;19.10;5.05;;;6.90;99.90;;;;;;5007061;28;20412;-57
2023/04/20 02:53:03;;;;;;;16.20;4.53;;;6.90;99.90;;;;;;4994121;28;20046;-55
2023/04/20 02:55:30;;;;;;;14.60;4.38;;;6.90;99.90;;;;;;5007844;28;20042;-57
2023/04/20 02:57:57;;;;;;;14.68;4.30;;;6.90;99.90;;;;;;4994707;28;20058;-55
2023/04/20 03:00:23;;;;;;;14.35;5.13;;;6.90;99.90;;;;;;5004256;28;20060;-56
2023/04/20 03:02:50;;;;;;;15.60;4.22;;;6.80;99.90;;;;;;5005839;28;20056;-56
2023/04/20 03:05:17;;;;;;;20.88;6.25;;;6.90;99.90;;;;;;4991719;28;20133;-53
2023/04/20 03:07:44;;;;;;;20.83;5.45;;;6.90;99.90;;;;;;5009853;28;20046;-55
2023/04/20 03:10:11;;;;;;;20.17;4.97;;;6.90;99.90;;;;;;5010853;28;20050;-56
2023/04/20 03:12:38;;;;;;;19.48;4.80;;;6.90;99.90;;;;;;5000112;28;20042;-56
2023/04/20 03:15:06;;;;;;;23.58;4.85;;;6.90;99.90;;;;;;5000194;28;20053;-56
2023/04/20 03:17:33;;;;;;;19.85;4.93;;;6.90;99.90;;;;;;4999772;28;20081;-54
2023/04/20 03:19:59;;;;;;;18.40;4.75;;;6.90;99.90;;;;;;4991695;28;20050;-55
2023/04/20 03:22:26;;;;;;;17.35;5.10;;;6.80;99.90;;;;;;4993728;28;20490;-54
2023/04/20 03:24:53;;;;;;;21.48;7.45;;;6.80;99.90;;;;;;5000381;28;20054;-56
2023/04/20 03:27:19;;;;;;;17.95;5.88;;;6.80;99.90;;;;;;5002432;28;20050;-56
2023/04/20 03:29:47;;;;;;;14.32;4.30;;;6.80;99.90;;;;;;5009034;28;20053;-55
2023/04/20 03:32:14;;;;;;;14.13;5.28;;;6.80;99.90;;;;;;5001282;28;20138;-55
2023/04/20 03:34:41;;;;;;;22.48;4.90;;;6.70;99.90;;;;;;4993492;28;20084;-55
2023/04/20 03:37:08;;;;;;;23.95;4.85;;;6.70;99.90;;;;;;4992398;28;20564;-52
2023/04/20 03:39:35;;;;;;;14.35;4.35;;;6.70;99.90;;;;;;5002166;28;20129;-56
2023/04/20 03:42:02;;;;;;;10.75;4.85;;;6.70;99.90;;;;;;5008278;28;20064;-54
2023/04/20 03:44:29;;;;;;;13.45;5.63;;;6.70;99.90;;;;;;5003552;28;20072;-56
2023/04/20 03:46:56;;;;;;;18.63;5.07;;;6.70;99.90;;;;;;5008407;28;20887;-56
2023/04/20 03:49:23;;;;;;;23.38;6.28;;;6.60;99.90;;;;;;4999794;28;20041;-55
2023/04/20 03:51:50;;;;;;;20.38;6.55;;;6.60;99.90;;;;;;4999301;28;20116;-56
2023/04/20 03:54:17;;;;;;;23.00;7.72;;;6.60;99.90;;;;;;5001730;28;20045;-55
2023/04/20 03:56:44;;;;;;;17.58;5.18;;;6.60;99.90;;;;;;4997997;28;20046;-56
2023/04/20 03:59:11;;;;;;;14.07;5.13;;;6.60;99.90;;;;;;5002237;28;20049;-55
2023/04/20 04:01:38;;;;;;;20.58;4.50;;;6.60;99.90;;;;;;4989373;28;20081;-56
2023/04/20 04:04:05;;;;;;;17.02;5.85;;;6.60;99.90;;;;;;4995250;28;20152;-55
2023/04/20 04:06:32;;;;;;;19.50;5.45;;;6.60;99.90;;;;;;5009803;28;20100;-55
2023/04/20 04:08:59;;;;;;;16.85;6.38;;;6.50;99.90;;;;;;4997493;28;20408;-52
2023/04/20 04:11:28;;;;;;;12.73;4.93;;;6.50;99.90;;;;;;4994567;28;20057;-57
2023/04/20 04:13:56;;;;;;;13.38;5.35;;;6.50;99.90;;;;;;5007303;28;20689;-56
2023/04/20 04:16:23;;;;;;;15.63;4.78;;;6.50;99.90;;;;;;4995635;28;20067;-55
2023/04/20 04:18:50;;;;;;;15.43;4.88;;;6.50;99.90;;;;;;5008149;28;20100;-56
2023/04/20 04:21:17;;;;;;;14.98;4.90;;;6.50;99.90;;;;;;5004553;28;20086;-54
2023/04/20 04:23:44;;;;;;;17.25;5.30;;;6.50;99.90;;;;;;4993403;28;20070;-57
2023/04/20 04:26:11;;;;;;;16.65;5.80;;;6.50;99.90;;;;;;4991685;28;20111;-56
2023/04/20 04:28:38;;;;;;;19.42;5.22;;;6.50;99.90;;;;;;4991670;28;20064;-56
2023/04/20 04:31:06;;;;;;;24.90;5.47;;;6.50;99.90;;;;;;5001300;28;20057;-57
2023/04/20 04:33:33;;;;;;;21.58;5.18;;;6.50;99.90;;;;;;4992176;28;20077;-54
2023/04/20 04:36:00;;;;;;;24.65;6.53;;;6.50;99.90;;;;;;4997278;28;20177;-53
2023/04/20 04:38:27;;;;;;;14.10;5.18;;;6.50;99.90;;;;;;5005989;28;20058;-55
2023/04/20 04:40:55;;;;;;;16.05;5.03;;;6.50;99.90;;;;;;5001363;28;20086;-53
2023/04/20 04:43:24;;;;;;;17.38;5.30;;;6.50;99.90;;;;;;5003603;28;20108;-53
2023/04/20 04:45:52;;;;;;;15.30;5.35;;;6.50;99.90;;;;;;4997377;28;20489;-53
2023/04/20 04:48:19;;;;;;;14.15;4.70;;;6.50;99.90;;;;;;5007299;28;20049;-55
2023/04/20 04:50:46;;;;;;;14.07;7.05;;;6.50;99.90;;;;;;5003409;28;20068;-54
2023/04/20 04:53:13;;;;;;;10.23;4.63;;;6.50;99.90;;;;;;5006005;28;20042;-55
2023/04/20 04:55:39;;;;;;;16.90;5.35;;;6.40;99.90;;;;;;5001481;28;20062;-55
2023/04/20 04:58:06;;;;;;;20.10;5.93;;;6.50;99.90;;;;;;5005239;28;20046;-56
2023/04/20 05:00:33;;;;;;;13.52;4.65;;;6.40;99.90;;;;;;5004718;28;20081;-55
2023/04/20 05:03:00;;;;;;;12.02;5.53;;;6.40;99.90;;;;;;5003795;28;20050;-56
2023/04/20 05:05:27;;;;;;;21.17;4.63;;;6.40;99.90;;;;;;4995090;28;20053;-56
2023/04/20 05:07:54;;;;;;;16.92;6.38;;;6.40;99.90;;;;;;4998652;28;20046;-54
2023/04/20 05:10:20;;;;;;;17.50;5.40;;;6.40;99.90;;;;;;4993653;28;20046;-56
2023/04/20 05:12:47;;;;;;;20.00;5.28;;;6.40;99.90;;;;;;5006574;28;20148;-53
2023/04/20 05:15:14;;;;;;;18.88;5.18;;;6.10;99.90;;;;;;5004171;28;20054;-56
2023/04/20 05:17:41;;;;;;;21.10;5.35;;;6.40;99.90;;;;;;4997643;28;20268;-55
2023/04/20 05:20:10;;;;;;;16.95;5.03;;;6.30;99.90;;;;;;4999844;28;20509;-55
2023/04/20 05:22:37;;;;;;;19.40;5.93;;;6.40;99.90;;;;;;4996562;28;20042;-56
2023/04/20 05:25:05;;;;;;;15.32;5.38;;;6.30;99.90;;;;;;4993684;28;20093;-56
2023/04/20 05:27:32;;;;;;;16.05;5.10;;;6.30;99.90;;;;;;5005095;28;20096;-55
2023/04/20 05:29:59;;;;;;;15.10;5.20;;;6.40;99.90;;;;;;5007497;28;20485;-56
2023/04/20 05:32:44;;;;;;;17.55;6.03;;;6.40;99.90;;;;;;5001454;28;20046;-55
2023/04/20 05:35:14;;;;;;;16.02;5.03;;;6.40;99.90;;;;;;5008024;28;20140;-54
2023/04/20 05:37:41;;;;;;;16.83;4.78;;;6.40;99.90;;;;;;4981531;28;20481;-56
2023/04/20 05:40:08;;;;;;;15.10;4.47;;;6.50;99.90;;;;;;4988736;28;20588;-56
2023/04/20 05:42:35;;;;;;;21.40;5.13;;;6.50;99.90;;;;;;4998992;28;20133;-56
2023/04/20 05:45:02;;;;;;;16.33;5.03;;;6.50;99.90;;;;;;4987540;28;20177;-55
2023/04/20 05:47:29;;;;;;;29.88;6.30;;;6.50;99.90;;;;;;4994426;28;20050;-54
2023/04/20 05:49:56;;;;;;;26.30;5.97;;;6.50;99.90;;;;;;5000342;28;20046;-56
2023/04/20 05:52:22;;;;;;;17.27;5.45;;;6.60;99.90;;;;;;5006724;28;20512;-56
2023/04/20 05:54:49;;;;;;;16.58;6.43;;;6.60;99.90;;;;;;4997325;28;20046;-57
2023/04/20 05:57:16;;;;;;;22.33;6.13;;;6.60;99.90;;;;;;4998319;28;20464;-57
2023/04/20 05:59:43;;;;;;;24.15;5.93;;;6.70;99.90;;;;;;5006832;28;20045;-57
2023/04/20 06:02:10;;;;;;;16.58;5.20;;;6.70;99.90;;;;;;4983000;28;20133;-57
2023/04/20 06:04:37;;;;;;;22.52;4.93;;;6.80;99.90;;;;;;5001672;28;20077;-57
2023/04/20 06:07:04;;;;;;;15.80;4.35;;;6.80;99.90;;;;;;4659430;28;9999804;-57
2023/04/20 06:09:30;;;;;;;15.65;4.70;;;6.90;99.90;;;;;;4998056;28;20052;-56
2023/04/20 06:11:59;;;;;;;19.63;4.57;;;6.90;99.90;;;;;;5007443;28;20427;-56
2023/04/20 06:14:25;;;;;;;11.90;4.53;;;7.00;99.90;;;;;;5000420;28;20129;-57
2023/04/20 06:16:52;;;;;;;24.08;5.65;;;7.00;99.90;;;;;;5004790;28;20091;-57
2023/04/20 06:19:19;;;;;;;15.52;5.32;;;7.10;99.90;;;;;;4997921;28;20068;-56
2023/04/20 06:21:46;;;;;;;22.65;4.88;;;7.20;99.90;;;;;;5008688;28;20050;-55
2023/04/20 06:24:12;;;;;;;17.80;4.35;;;7.20;99.90;;;;;;4995142;28;20488;-57
2023/04/20 06:26:39;;;;;;;30.27;6.22;;;7.30;99.90;;;;;;5003051;28;20038;-55
2023/04/20 06:29:06;;;;;;;16.00;5.28;;;7.40;99.90;;;;;;4996677;28;20046;-55
2023/04/20 06:31:33;;;;;;;16.25;4.32;;;7.40;99.90;;;;;;5009076;28;20054;-55
2023/04/20 06:34:00;;;;;;;16.17;5.25;;;7.40;99.90;;;;;;4993944;28;20081;-55
2023/04/20 06:36:27;;;;;;;16.70;4.57;;;7.50;99.90;;;;;;4998410;28;20050;-54
2023/04/20 06:38:54;;;;;;;11.55;4.93;;;7.60;99.90;;;;;;4978150;28;20160;-55
2023/04/20 06:41:21;;;;;;;14.77;4.57;;;7.70;99.90;;;;;;5005023;28;20138;-56
2023/04/20 06:43:47;;;;;;;19.02;5.25;;;7.70;99.90;;;;;;4999570;28;20058;-55
2023/04/20 06:46:14;;;;;;;28.42;6.93;;;7.90;99.90;;;;;;4992891;28;20072;-55
2023/04/20 06:48:41;;;;;;;17.05;5.47;;;7.90;99.90;;;;;;4998482;28;20680;-55
2023/04/20 06:51:08;;;;;;;12.40;5.57;;;7.90;99.90;;;;;;4995104;28;20051;-54
2023/04/20 06:53:34;;;;;;;14.32;5.10;;;7.90;99.90;;;;;;4990049;28;20069;-55
2023/04/20 06:56:01;;;;;;;17.45;5.82;;;8.00;99.90;;;;;;4997100;28;20098;-54
2023/04/20 06:58:28;;;;;;;14.00;4.60;;;8.00;99.90;;;;;;4998265;28;20483;-53
2023/04/20 07:00:54;;;;;;;13.88;5.00;;;8.10;99.90;;;;;;4987868;28;20061;-54
2023/04/20 07:03:21;;;;;;;12.45;5.07;;;8.10;99.90;;;;;;4997548;28;20069;-54
2023/04/20 07:05:48;;;;;;;16.50;5.90;;;8.20;99.90;;;;;;4997312;28;20057;-55
2023/04/20 07:08:15;;;;;;;19.00;4.55;;;8.30;99.90;;;;;;4989743;28;20065;-55
2023/04/20 07:10:42;;;;;;;13.68;4.15;;;8.30;99.90;;;;;;5002115;28;20049;-52
2023/04/20 07:13:08;;;;;;;18.75;5.75;;;8.40;99.90;;;;;;4998241;28;20050;-54
2023/04/20 07:15:35;;;;;;;13.07;4.03;;;8.50;99.90;;;;;;5001310;28;20057;-55
2023/04/20 07:18:02;;;;;;;14.48;4.72;;;8.50;99.90;;;;;;4999595;28;20050;-55
2023/04/20 07:20:30;;;;;;;15.77;4.18;;;8.60;99.90;;;;;;4992066;28;20133;-54
2023/04/20 07:22:56;;;;;;;12.00;4.32;;;8.60;99.90;;;;;;5004846;28;20076;-51
2023/04/20 07:25:24;;;;;;;19.02;5.05;;;8.70;99.90;;;;;;4998178;28;20156;-55
2023/04/20 07:27:51;;;;;;;21.20;6.10;;;8.80;99.90;;;;;;5003155;28;20131;-55
2023/04/20 07:30:18;;;;;;;14.10;5.18;;;8.90;99.90;;;;;;4995534;28;20133;-55
2023/04/20 07:32:44;;;;;;;16.35;5.03;;;8.90;99.90;;;;;;4999128;28;20483;-57
2023/04/20 07:35:11;;;;;;;21.60;5.57;;;9.00;99.90;;;;;;5002166;28;20124;-55
2023/04/20 07:37:38;;;;;;;14.55;4.20;;;9.10;99.90;;;;;;4990843;28;20056;-56
2023/04/20 07:40:07;;;;;;;16.70;5.55;;;9.10;99.90;;;;;;5001568;28;20053;-55
2023/04/20 07:42:35;;;;;;;19.85;3.78;;;9.20;99.90;;;;;;4998241;28;20406;-52
2023/04/20 07:45:04;;;;;;;15.07;4.55;;;9.30;99.90;;;;;;4988648;28;20050;-60
2023/04/20 07:47:32;;;;;;;10.38;4.18;;;9.40;99.90;;;;;;4999257;28;20212;-55
2023/04/20 07:49:58;;;;;;;14.82;5.00;;;9.50;99.90;;;;;;5005125;28;20050;-56
2023/04/20 07:52:25;;;;;;;11.35;4.00;;;9.50;99.90;;;;;;4996668;28;20078;-54
2023/04/20 07:54:58;;;;;;;25.67;5.15;;;9.60;99.90;;;;;;5006665;28;20046;-53
2023/04/20 07:57:25;;;;;;;15.32;5.13;;;9.70;99.90;;;;;;4998372;28;20146;-55
2023/04/20 07:59:52;;;;;;;22.08;5.20;;;9.70;99.90;;;;;;5006831;28;20054;-55
2023/04/20 08:02:19;;;;;;;14.18;4.63;;;9.80;99.90;;;;;;4993811;28;20073;-52
2023/04/20 08:04:47;;;;;;;25.58;5.70;;;9.90;99.90;;;;;;5002397;28;20075;-54
2023/04/20 08:07:15;;;;;;;12.85;4.47;;;10.00;99.90;;;;;;4998688;28;20053;-55
2023/04/20 08:09:42;;;;;;;20.70;4.35;;;10.10;99.90;;;;;;5003459;28;20042;-54
2023/04/20 08:12:08;;;;;;;25.33;5.43;;;10.10;99.90;;;;;;4994684;28;20080;-54
2023/04/20 08:14:37;;;;;;;11.95;3.90;;;10.20;99.90;;;;;;4988937;28;20132;-57
2023/04/20 08:17:03;;;;;;;13.88;4.03;;;10.20;99.90;;;;;;4994303;28;20077;-51
2023/04/20 08:19:30;;;;;;;13.48;4.25;;;10.30;99.90;;;;;;5005170;28;20576;-53
2023/04/20 08:21:57;;;;;;;16.05;4.00;;;10.30;99.90;;;;;;4999147;28;20064;-52
2023/04/20 08:24:25;;;;;;;13.63;3.70;;;10.40;99.90;;;;;;4987378;28;20453;-54
2023/04/20 08:26:52;;;;;;;11.00;3.65;;;10.40;99.90;;;;;;4994592;28;20054;-52
2023/04/20 08:29:19;;;;;;;9.40;3.40;;;10.40;99.90;;;;;;4989682;28;20417;-54
2023/04/20 08:31:46;;;;;;;14.85;3.33;;;10.50;99.90;;;;;;4988753;28;20042;-51
2023/04/20 08:34:16;;;;;;;17.60;3.85;;;10.50;99.90;;;;;;5005409;28;20161;-52
2023/04/20 08:36:43;;;;;;;8.30;3.28;;;10.60;99.90;;;;;;5002383;28;20081;-52
2023/04/20 08:39:13;;;;;;;9.02;3.05;;;10.70;99.90;;;;;;5005490;28;20049;-52
2023/04/20 08:41:40;;;;;;;11.30;2.83;;;10.80;99.90;;;;;;5000780;28;20481;-54
2023/04/20 08:44:06;;;;;;;10.00;2.90;;;10.80;99.90;;;;;;4994653;28;20077;-58
2023/04/20 08:46:33;;;;;;;9.18;2.78;;;10.90;99.90;;;;;;4986347;28;20046;-56
2023/04/20 08:49:04;;;;;;;11.57;2.22;;;10.90;99.90;;;;;;4995712;28;20042;-53
2023/04/20 08:51:31;;;;;;;9.75;2.00;;;11.00;99.90;;;;;;5006084;28;20500;-55
2023/04/20 08:54:04;;;;;;;12.18;2.30;;;11.00;99.90;;;;;;4994031;28;20482;-55
2023/04/20 08:56:36;;;;;;;8.13;2.90;;;11.10;99.90;;;;;;4985564;28;20057;-55
2023/04/20 08:59:04;;;;;;;6.18;2.28;;;11.20;99.90;;;;;;4999951;28;20489;-54
2023/04/20 09:01:31;;;;;;;7.15;1.80;;;11.30;99.90;;;;;;5006352;28;20133;-52
2023/04/20 09:04:02;;;;;;;13.30;3.45;;;11.40;99.90;;;;;;5002010;28;20053;-55
2023/04/20 09:06:30;;;;;;;7.28;2.40;;;11.50;99.90;;;;;;4986504;28;20101;-54
2023/04/20 09:08:56;;;;;;;9.95;2.53;;;11.60;99.90;;;;;;4996041;28;20150;-55
2023/04/20 09:11:24;;;;;;;14.27;3.40;;;11.70;99.90;;;;;;5003964;28;20046;-55
2023/04/20 09:14:08;;;;;;;10.23;1.67;;;11.70;99.90;;;;;;5003838;28;20049;-55
2023/04/20 09:16:36;;;;;;;5.38;1.75;;;11.80;99.90;;;;;;5005083;28;20080;-52
2023/04/20 09:19:03;;;;;;;8.15;1.42;;;11.90;99.90;;;;;;5003361;28;20081;-55
2023/04/20 09:21:31;;;;;;;4.80;1.60;;;12.10;99.90;;;;;;4989605;28;20057;-52
2023/04/20 09:24:05;;;;;;;12.30;2.45;;;12.20;99.90;;;;;;4987882;28;20058;-59
2023/04/20 09:26:32;;;;;;;;;;;12.30;95.70;;;;;;5001150;28;20053;-53
2023/04/20 09:29:00;;;;;;;10.02;1.83;;;12.20;95.20;;;;;;5000958;28;19931;-53
2023/04/20 09:31:27;;;;;;;6.88;1.60;;;12.40;99.70;;;;;;5005581;28;20136;-55
2023/04/20 09:33:57;;;;;;;4.70;1.45;;;12.50;98.40;;;;;;5003200;28;20054;-54
2023/04/20 09:36:33;;;;;;;4.78;1.30;;;12.60;97.40;;;;;;4996912;28;20053;-55
2023/04/20 09:39:10;;;;;;;6.30;1.48;;;12.70;96.60;;;;;;4990109;28;20486;-53
2023/04/20 09:41:38;;;;;;;6.88;1.58;;;12.80;96.40;;;;;;4997678;28;20145;-51
2023/04/20 09:44:05;;;;;;;12.00;2.28;;;13.00;98.80;;;;;;5002440;28;20222;-54
2023/04/20 09:46:33;;;;;;;7.38;2.22;;;13.30;96.80;;;;;;5000991;28;20844;-54
2023/04/20 09:49:02;;;;;;;9.40;1.33;;;13.60;96.80;;;;;;4994017;28;20051;-58
2023/04/20 09:51:31;;;;;;;7.00;1.50;;;13.90;96.10;;;;;;4997185;28;20144;-54
2023/04/20 09:53:58;;;;;;;10.43;1.63;;;14.10;95.70;;;;;;5009126;28;20485;-54
2023/04/20 09:56:26;;;;;;;9.90;1.70;;;14.20;93.70;;;;;;5004352;28;20050;-54
2023/04/20 09:58:53;;;;;;;12.50;1.95;;;14.30;94.10;;;;;;4994221;28;20057;-54
2023/04/20 10:01:23;;;;;;;6.25;1.50;;;14.40;89.50;;;;;;5001603;28;20133;-53
2023/04/20 10:03:52;;;;;;;4.82;1.63;;;14.40;92.50;;;;;;4994348;28;20058;-54
2023/04/20 10:06:30;;;;;;;4.95;1.65;;;14.50;90.00;;;;;;4995950;28;20138;-54
2023/04/20 10:09:00;;;;;;;6.05;2.10;;;14.50;86.70;;;;;;5003777;28;20061;-53
2023/04/20 10:11:33;;;;;;;10.02;1.90;;;14.30;91.20;;;;;;5001408;28;20124;-54
2023/04/20 10:14:18;;;;;;;5.28;1.90;;;14.10;90.70;;;;;;4996185;28;20144;-54
2023/04/20 10:16:56;;;;;;;5.13;1.50;;;14.00;88.00;;;;;;4994688;28;20333;-54
2023/04/20 10:19:23;;;;;;;12.43;1.45;;;13.90;90.10;;;;;;5008195;28;20497;-52
2023/04/20 10:21:50;;;;;;;5.18;1.58;;;13.80;90.50;;;;;;4993516;28;20058;-53
2023/04/20 10:24:29;;;;;;;8.43;1.77;;;13.80;88.90;;;;;;4992329;28;20053;-52
2023/04/20 10:26:56;;;;;;;5.40;1.38;;;13.80;85.50;;;;;;5000076;28;20132;-54
2023/04/20 10:29:26;;;;;;;9.07;1.40;;;13.80;90.10;;;;;;4991268;28;20064;-52
2023/04/20 10:31:54;;;;;;;7.43;1.30;;;13.90;89.70;;;;;;4996446;28;20509;-53
2023/04/20 10:34:30;;;;;;;6.03;1.42;;;13.90;90.60;;;;;;5005463;28;20056;-52
2023/04/20 10:37:10;;;;;;;4.13;1.33;;;13.90;84.60;;;;;;4997648;28;20086;-52
2023/04/20 10:39:44;;;;;;;4.95;1.40;;;13.70;84.20;;;;;;4989151;28;20046;-54
2023/04/20 10:42:10;;;;;;;;;;;13.60;85.70;;;;;;4993622;28;20768;-53
2023/04/20 10:44:48;;;;;;;3.70;1.27;;;13.50;81.10;;;;;;5006275;28;19921;-53
2023/04/20 10:47:36;;;;;;;7.35;1.40;;;13.40;86.50;;;;;;4998191;28;20979;-55
2023/04/20 10:50:11;;;;;;;6.32;1.25;;;13.40;85.60;;;;;;4988895;28;20150;-52
2023/04/20 10:52:39;;;;;;;9.63;1.33;;;13.50;87.10;;;;;;4992939;28;20051;-52
2023/04/20 10:55:07;;;;;;;3.58;1.55;;;13.60;86.30;;;;;;5003660;28;20053;-53
2023/04/20 10:57:35;;;;;;;9.38;2.22;;;13.70;87.10;;;;;;4997076;28;20129;-53
2023/04/20 11:00:16;;;;;;;4.40;1.60;;;13.80;83.70;;;;;;5005566;28;20045;-51
2023/04/20 11:02:50;;;;;;;5.68;1.33;;;13.80;81.40;;;;;;4998286;28;20065;-54
2023/04/20 11:05:17;;;;;;;2.33;1.23;;;13.80;82.80;;;;;;5006534;28;20133;-52
2023/04/20 11:07:54;;;;;;;22.35;2.88;;;13.80;83.20;;;;;;5004825;28;20050;-53
2023/04/20 11:10:35;;;;;;;4.82;1.60;;;13.90;83.20;;;;;;4994973;28;20141;-54
2023/04/20 11:13:02;;;;;;;5.80;1.38;;;14.00;81.50;;;;;;4992593;28;20508;-52
2023/04/20 11:15:32;;;;;;;11.43;1.63;;;14.00;79.50;;;;;;5005299;28;20061;-53
2023/04/20 11:18:06;;;;;;;3.53;1.40;;;14.10;79.80;;;;;;4998138;28;20146;-57
2023/04/20 11:20:34;;;;;;;13.90;2.80;;;14.30;79.40;;;;;;5006375;28;20090;-53
2023/04/20 11:23:03;;;;;;;6.40;1.17;;;14.30;78.10;;;;;;4992014;28;20556;-54
2023/04/20 11:25:30;;;;;;;11.23;1.90;;;14.30;81.90;;;;;;4987416;28;20050;-54
2023/04/20 11:28:09;;;;;;;5.68;1.60;;;14.30;79.20;;;;;;4994676;28;20052;-52
2023/04/20 11:30:40;;;;;;;5.85;1.45;;;14.30;79.30;;;;;;5008441;28;20053;-51
2023/04/20 11:33:07;;;;;;;14.73;2.67;;;14.30;80.90;;;;;;5004745;28;20042;-55
2023/04/20 11:35:40;;;;;;;3.90;1.60;;;14.40;82.40;;;;;;5008852;28;20050;-55
2023/04/20 11:38:07;;;;;;;5.38;1.73;;;14.40;81.30;;;;;;5004727;28;20130;-57
2023/04/20 11:40:34;;;;;;;5.63;1.40;;;14.40;82.50;;;;;;5009641;28;20567;-55
2023/04/20 11:43:03;;;;;;;6.85;1.38;;;14.50;83.30;;;;;;5007029;28;20503;-55
2023/04/20 11:45:32;;;;;;;4.50;2.10;;;14.60;79.80;;;;;;4999249;28;20072;-54
2023/04/20 11:48:03;;;;;;;3.78;1.20;;;14.60;82.70;;;;;;4992708;28;20043;-52
2023/04/20 11:50:30;;;;;;;3.55;1.67;;;14.60;80.20;;;;;;4994458;28;20567;-54
2023/04/20 11:52:57;;;;;;;4.50;1.60;;;14.60;80.10;;;;;;4991571;28;20504;-54
2023/04/20 11:55:24;;;;;;;2.60;1.13;;;14.60;79.10;;;;;;5006365;28;20053;-55
2023/04/20 11:57:50;;;;;;;3.40;1.38;;;14.60;79.30;;;;;;5009816;28;20056;-54
2023/04/20 12:00:18;;;;;;;2.58;1.25;;;14.70;79.60;;;;;;5000687;28;20129;-53
2023/04/20 12:02:45;;;;;;;4.43;1.38;;;14.60;77.80;;;;;;4990253;28;20047;-54
2023/04/20 12:05:12;;;;;;;3.72;1.02;;;14.40;76.90;;;;;;5002494;28;20053;-54
2023/04/20 12:07:40;;;;;;;10.73;1.42;;;14.40;76.80;;;;;;5008905;28;20542;-52
2023/04/20 12:10:07;;;;;;;9.50;1.60;;;14.40;76.30;;;;;;5005128;28;20100;-51
2023/04/20 12:12:34;;;;;;;7.18;1.30;;;14.50;75.30;;;;;;5009386;28;20050;-54
2023/04/20 12:15:01;;;;;;;9.07;1.23;;;14.50;77.50;;;;;;5005218;28;20485;-55
2023/04/20 12:17:27;;;;;;;6.18;1.30;;;14.70;77.50;;;;;;5009894;28;20133;-55
2023/04/20 12:19:54;;;;;;;2.53;0.80;;;14.80;73.10;;;;;;5007891;28;20376;-52
2023/04/20 12:22:21;;;;;;;7.82;1.45;;;15.00;77.00;;;;;;4994969;28;20043;-56
2023/04/20 12:24:48;;;;;;;7.50;1.70;;;15.10;74.70;;;;;;4996323;28;20049;-54
2023/04/20 12:27:15;;;;;;;5.68;0.93;;;15.20;74.10;;;;;;4997353;28;20050;-54
2023/04/20 12:29:41;;;;;;;15.68;2.70;;;15.30;73.30;;;;;;4994557;28;20050;-54
2023/04/20 12:32:08;;;;;;;3.80;1.05;;;15.40;72.90;;;;;;4998054;28;20501;-54
2023/04/20 12:34:35;;;;;;;7.50;1.15;;;15.50;72.70;;;;;;4990120;28;20560;-53
2023/04/20 12:37:02;;;;;;;2.97;0.88;;;15.60;71.80;;;;;;5007953;28;20057;-54
2023/04/20 12:39:28;;;;;;;3.08;0.98;;;15.60;69.00;;;;;;5007737;28;20136;-55
2023/04/20 12:41:56;;;;;;;2.08;0.88;;;15.60;68.90;;;;;;5006137;28;20046;-57
2023/04/20 12:44:22;;;;;;;1.70;1.10;;;15.50;65.60;;;;;;5009553;28;20080;-54
2023/04/20 12:46:49;;;;;;;4.90;1.10;;;15.50;67.50;;;;;;4996625;28;20042;-54
2023/04/20 12:49:16;;;;;;;8.05;1.60;;;15.50;68.50;;;;;;5008180;28;20137;-55